createdAt,value
2022-08-26T00:01:24.178Z,46.22
2022-08-26T00:03:55.621Z,46.46
2022-08-26T00:06:22.032Z,46.69
2022-08-26T00:08:48.935Z,46.42
2022-08-26T00:11:15.307Z,46.40
2022-08-26T00:13:52.797Z,46.41
2022-08-26T00:16:19.726Z,46.33
2022-08-26T00:18:46.384Z,46.38
2022-08-26T00:21:12.747Z,46.47
2022-08-26T00:23:39.451Z,46.72
2022-08-26T00:26:06.357Z,46.78
2022-08-26T00:28:34.747Z,46.76
2022-08-26T00:31:01.126Z,46.68
2022-08-26T00:33:27.508Z,46.68
2022-08-26T00:35:53.867Z,47.03
2022-08-26T00:38:20.243Z,47.00
2022-08-26T00:40:46.676Z,47.03
2022-08-26T00:43:13.028Z,47.30
2022-08-26T00:45:39.605Z,47.01
2022-08-26T00:48:06.042Z,47.32
2022-08-26T00:50:32.418Z,47.27
2022-08-26T00:52:58.767Z,47.25
2022-08-26T00:55:25.119Z,47.27
2022-08-26T00:58:00.942Z,47.24
2022-08-26T01:00:27.466Z,47.13
2022-08-26T01:02:53.833Z,47.41
2022-08-26T01:05:20.191Z,47.54
2022-08-26T01:07:46.561Z,47.61
2022-08-26T01:10:12.951Z,47.51
2022-08-26T01:12:40.175Z,47.21
2022-08-26T01:15:06.755Z,47.48
2022-08-26T01:17:33.765Z,47.36
2022-08-26T01:20:00.253Z,47.26
2022-08-26T01:22:28.233Z,47.41
2022-08-26T01:24:55.119Z,47.19
2022-08-26T01:27:22.452Z,47.57
2022-08-26T01:29:49.736Z,47.68
2022-08-26T01:32:16.105Z,47.45
2022-08-26T01:34:42.483Z,47.59
2022-08-26T01:37:08.835Z,47.53
2022-08-26T01:39:41.918Z,47.58
2022-08-26T01:42:11.071Z,47.51
2022-08-26T01:44:38.941Z,47.63
2022-08-26T01:47:06.521Z,47.38
2022-08-26T01:49:32.928Z,47.30
2022-08-26T01:52:00.833Z,47.36
2022-08-26T01:54:27.198Z,47.28
2022-08-26T01:56:53.557Z,47.58
2022-08-26T01:59:19.934Z,47.48
2022-08-26T02:01:46.648Z,47.36
2022-08-26T02:04:13.044Z,47.55
2022-08-26T02:06:39.466Z,47.68
2022-08-26T02:09:06.240Z,47.38
2022-08-26T02:11:32.618Z,47.57
2022-08-26T02:13:58.995Z,47.40
2022-08-26T02:16:25.405Z,47.31
2022-08-26T02:18:53.376Z,47.27
2022-08-26T02:21:19.811Z,47.38
2022-08-26T02:23:46.181Z,47.21
2022-08-26T02:26:12.555Z,47.51
2022-08-26T02:28:44.200Z,47.48
2022-08-26T02:31:10.596Z,46.99
2022-08-26T02:33:36.978Z,47.37
2022-08-26T02:36:09.308Z,47.25
2022-08-26T02:38:38.543Z,47.19
2022-08-26T02:41:06.117Z,47.16
2022-08-26T02:43:34.465Z,47.38
2022-08-26T02:46:02.141Z,47.53
2022-08-26T02:48:28.909Z,47.65
2022-08-26T02:50:55.273Z,47.79
2022-08-26T02:53:25.226Z,47.47
2022-08-26T02:55:51.854Z,47.21
2022-08-26T02:58:18.210Z,47.13
2022-08-26T03:00:53.105Z,47.06
2022-08-26T03:03:19.971Z,47.08
2022-08-26T03:05:48.927Z,47.37
2022-08-26T03:08:15.342Z,47.48
2022-08-26T03:10:41.696Z,47.25
2022-08-26T03:13:08.202Z,47.27
2022-08-26T03:15:34.724Z,47.22
2022-08-26T03:18:01.081Z,47.37
2022-08-26T03:20:27.438Z,47.21
2022-08-26T03:22:53.987Z,47.27
2022-08-26T03:25:22.614Z,47.43
2022-08-26T03:27:50.153Z,47.29
2022-08-26T03:30:16.510Z,47.46
2022-08-26T03:32:42.869Z,47.54
2022-08-26T03:35:09.238Z,47.34
2022-08-26T03:37:35.595Z,47.05
2022-08-26T03:40:01.980Z,47.45
2022-08-26T03:42:28.364Z,47.28
2022-08-26T03:44:54.719Z,47.17
2022-08-26T03:47:21.067Z,47.30
2022-08-26T03:49:47.428Z,47.68
2022-08-26T03:52:13.788Z,47.67
2022-08-26T03:54:40.376Z,47.25
2022-08-26T03:57:06.753Z,47.79
2022-08-26T03:59:33.129Z,47.25
2022-08-26T04:01:59.561Z,47.56
2022-08-26T04:04:25.996Z,47.65
2022-08-26T04:06:52.355Z,47.66
2022-08-26T04:09:18.725Z,47.80
2022-08-26T04:11:45.537Z,47.92
2022-08-26T04:14:13.873Z,47.38
2022-08-26T04:16:43.888Z,47.36
2022-08-26T04:19:10.247Z,47.12
2022-08-26T04:21:36.749Z,47.21
2022-08-26T04:24:03.571Z,47.21
2022-08-26T04:26:30.269Z,47.11
2022-08-26T04:28:58.385Z,49.21
2022-08-26T04:31:25.822Z,48.43
2022-08-26T04:33:52.759Z,49.83
2022-08-26T04:36:20.100Z,50.65
2022-08-26T04:38:46.736Z,49.87
2022-08-26T04:41:14.949Z,50.01
2022-08-26T04:43:43.138Z,50.14
2022-08-26T04:46:09.520Z,50.15
2022-08-26T04:48:39.499Z,49.28
2022-08-26T04:51:05.880Z,49.27
2022-08-26T04:53:32.253Z,49.68
2022-08-26T04:55:58.619Z,49.36
2022-08-26T04:58:24.984Z,49.71
2022-08-26T05:00:51.813Z,49.76
2022-08-26T05:03:18.199Z,50.06
2022-08-26T05:05:44.567Z,49.69
2022-08-26T05:08:11.296Z,50.09
2022-08-26T05:10:37.829Z,50.32
2022-08-26T05:13:04.674Z,50.20
2022-08-26T05:15:37.664Z,49.96
2022-08-26T05:18:04.073Z,50.56
2022-08-26T05:20:30.461Z,50.99
2022-08-26T05:22:56.830Z,50.40
2022-08-26T05:25:23.417Z,51.18
2022-08-26T05:27:54.852Z,50.68
2022-08-26T05:30:21.232Z,50.69
2022-08-26T05:32:47.608Z,50.87
2022-08-26T05:35:14.017Z,51.85
2022-08-26T05:37:42.409Z,51.59
2022-08-26T05:40:08.870Z,51.29
2022-08-26T05:42:36.791Z,52.27
2022-08-26T05:45:03.179Z,52.45
2022-08-26T05:47:29.550Z,52.40
2022-08-26T05:49:55.927Z,52.48
2022-08-26T05:52:25.996Z,53.20
2022-08-26T05:54:52.537Z,52.99
2022-08-26T05:57:18.938Z,52.81
2022-08-26T05:59:49.616Z,53.60
2022-08-26T06:02:15.970Z,52.20
2022-08-26T06:04:43.088Z,52.64
2022-08-26T06:07:09.941Z,53.22
2022-08-26T06:09:38.513Z,53.14
2022-08-26T06:12:05.013Z,54.36
2022-08-26T06:14:31.381Z,54.68
2022-08-26T06:16:57.754Z,52.41
2022-08-26T06:19:24.146Z,53.27
2022-08-26T06:21:53.984Z,53.58
2022-08-26T06:24:20.690Z,52.64
2022-08-26T06:26:53.215Z,54.12
2022-08-26T06:29:24.809Z,54.13
2022-08-26T06:31:51.269Z,54.33
2022-08-26T06:34:18.006Z,54.73
2022-08-26T06:36:44.384Z,53.51
2022-08-26T06:39:10.752Z,53.77
2022-08-26T06:41:41.331Z,53.72
2022-08-26T06:44:09.700Z,54.34
2022-08-26T06:46:36.363Z,54.82
2022-08-26T06:49:02.765Z,54.73
2022-08-26T06:51:29.134Z,54.52
2022-08-26T06:53:55.495Z,54.58
2022-08-26T06:56:21.864Z,53.84
2022-08-26T06:58:48.272Z,54.76
2022-08-26T07:01:15.052Z,55.73
2022-08-26T07:03:41.446Z,54.93
2022-08-26T07:06:08.073Z,54.87
2022-08-26T07:08:34.438Z,54.16
2022-08-26T07:11:00.809Z,55.50
2022-08-26T07:13:30.698Z,54.41
2022-08-26T07:15:57.479Z,54.62
2022-08-26T07:18:29.190Z,53.20
2022-08-26T07:20:55.556Z,54.47
2022-08-26T07:23:22.490Z,54.20
2022-08-26T07:25:48.880Z,53.87
2022-08-26T07:28:15.244Z,54.64
2022-08-26T07:30:41.631Z,53.16
2022-08-26T07:33:08.453Z,53.59
2022-08-26T07:35:37.218Z,53.84
2022-08-26T07:38:03.580Z,53.72
2022-08-26T07:40:30.006Z,53.38
2022-08-26T07:42:56.446Z,53.79
2022-08-26T07:45:22.824Z,54.02
2022-08-26T07:47:49.919Z,54.09
2022-08-26T07:50:16.285Z,53.79
2022-08-26T07:52:42.645Z,54.11
2022-08-26T07:55:09.019Z,53.74
2022-08-26T07:57:35.391Z,53.29
2022-08-26T08:00:01.798Z,52.99
2022-08-26T08:02:28.162Z,53.16
2022-08-26T08:04:54.604Z,53.07
2022-08-26T08:07:21.075Z,52.40
2022-08-26T08:09:52.260Z,52.97
2022-08-26T08:12:18.620Z,52.77
2022-08-26T08:14:45.614Z,52.53
2022-08-26T08:19:39.179Z,52.41
2022-08-26T08:22:06.877Z,52.07
2022-08-26T08:24:44.010Z,52.68
2022-08-26T08:27:10.381Z,52.63
2022-08-26T08:29:36.785Z,52.49
2022-08-26T08:32:03.224Z,52.26
2022-08-26T08:34:30.559Z,51.96
2022-08-26T08:36:56.983Z,52.08
2022-08-26T08:39:23.880Z,52.89
2022-08-26T08:41:50.241Z,52.44
2022-08-26T08:44:17.727Z,52.29
2022-08-26T08:46:44.300Z,52.48
2022-08-26T08:49:10.664Z,52.03
2022-08-26T08:51:37.041Z,51.91
2022-08-26T08:54:03.610Z,52.04
2022-08-26T08:56:30.631Z,52.09
2022-08-26T08:58:57.042Z,52.17
2022-08-26T09:01:23.466Z,52.25
2022-08-26T09:03:49.845Z,52.82
2022-08-26T09:06:16.197Z,52.50
2022-08-26T09:08:42.791Z,52.14
2022-08-26T09:11:09.152Z,52.47
2022-08-26T09:13:36.029Z,52.13
2022-08-26T09:16:02.393Z,52.42
2022-08-26T09:18:28.972Z,52.22
2022-08-26T09:20:55.338Z,52.78
2022-08-26T09:23:21.703Z,52.75
2022-08-26T09:25:48.100Z,52.74
2022-08-26T09:28:14.496Z,52.38
2022-08-26T09:30:42.125Z,52.76
2022-08-26T09:33:10.922Z,52.39
2022-08-26T09:35:37.676Z,52.61
2022-08-26T09:38:05.411Z,52.64
2022-08-26T09:40:34.695Z,52.84
2022-08-26T09:43:01.557Z,52.92
2022-08-26T09:45:27.920Z,52.46
2022-08-26T09:47:54.278Z,52.57
2022-08-26T09:50:20.924Z,52.49
2022-08-26T09:52:47.280Z,52.13
2022-08-26T09:55:13.853Z,52.36
2022-08-26T09:57:40.222Z,52.19
2022-08-26T10:00:06.589Z,51.47
2022-08-26T10:02:33.002Z,52.09
2022-08-26T10:04:59.358Z,51.72
2022-08-26T10:07:35.409Z,52.22
2022-08-26T10:10:02.825Z,52.35
2022-08-26T10:12:29.541Z,52.00
2022-08-26T10:14:57.186Z,51.73
2022-08-26T10:17:23.550Z,52.20
2022-08-26T10:19:56.568Z,53.03
2022-08-26T10:22:23.896Z,52.40
2022-08-26T10:24:54.524Z,52.64
2022-08-26T10:27:21.450Z,52.00
2022-08-26T10:29:47.812Z,52.49
2022-08-26T10:32:14.209Z,52.03
2022-08-26T10:34:40.690Z,52.48
2022-08-26T10:37:13.824Z,51.96
2022-08-26T10:39:41.851Z,52.09
2022-08-26T10:42:08.209Z,52.09
2022-08-26T10:44:37.249Z,52.55
2022-08-26T10:47:03.616Z,52.71
2022-08-26T10:49:31.647Z,52.55
2022-08-26T10:51:58.324Z,52.93
2022-08-26T10:54:24.686Z,52.38
2022-08-26T10:56:51.341Z,52.17
2022-08-26T10:59:17.727Z,52.61
2022-08-26T11:01:44.170Z,52.44
2022-08-26T11:04:13.497Z,53.04
2022-08-26T11:06:40.151Z,52.80
2022-08-26T11:09:08.312Z,52.96
2022-08-26T11:11:34.680Z,53.35
2022-08-26T11:14:01.033Z,52.94
2022-08-26T11:16:27.482Z,52.77
2022-08-26T11:18:53.904Z,53.00
2022-08-26T11:21:20.353Z,52.91
2022-08-26T11:23:52.938Z,53.12
2022-08-26T11:26:37.793Z,52.54
2022-08-26T11:29:12.159Z,53.27
2022-08-26T11:31:39.874Z,53.46
2022-08-26T11:34:06.476Z,53.13
2022-08-26T11:36:32.837Z,52.36
2022-08-26T11:38:59.845Z,52.81
2022-08-26T11:41:26.234Z,52.69
2022-08-26T11:43:52.597Z,52.64
2022-08-26T11:46:19.439Z,53.25
2022-08-26T11:48:45.864Z,52.62
2022-08-26T11:51:12.229Z,52.62
2022-08-26T11:53:39.858Z,52.39
2022-08-26T11:56:06.224Z,52.10
2022-08-26T11:58:32.581Z,52.68
2022-08-26T12:00:58.946Z,52.63
2022-08-26T12:03:25.427Z,52.04
2022-08-26T12:05:51.883Z,52.36
2022-08-26T12:08:18.257Z,52.00
2022-08-26T12:10:44.623Z,52.33
2022-08-26T12:13:10.992Z,51.81
2022-08-26T12:15:37.340Z,52.14
2022-08-26T12:18:03.705Z,52.25
2022-08-26T12:20:30.064Z,51.89
2022-08-26T12:22:56.478Z,52.34
2022-08-26T12:25:22.841Z,52.29
2022-08-26T12:27:53.582Z,51.99
2022-08-26T12:30:20.316Z,52.27
2022-08-26T12:32:57.658Z,52.26
2022-08-26T12:35:24.851Z,52.00
2022-08-26T12:37:51.250Z,52.25
2022-08-26T12:40:17.880Z,51.73
2022-08-26T12:42:44.324Z,51.94
2022-08-26T12:45:10.740Z,51.49
2022-08-26T12:47:42.545Z,51.31
2022-08-26T12:50:10.292Z,51.67
2022-08-26T12:52:36.704Z,51.68
2022-08-26T12:55:03.113Z,51.29
2022-08-26T12:57:29.517Z,51.56
2022-08-26T12:59:56.000Z,51.97
2022-08-26T13:02:22.443Z,51.34
2022-08-26T13:04:48.872Z,51.47
2022-08-26T13:07:15.288Z,50.73
2022-08-26T13:09:41.691Z,51.10
2022-08-26T13:12:09.556Z,51.27
2022-08-26T13:14:35.952Z,50.70
2022-08-26T13:17:02.374Z,50.19
2022-08-26T13:19:28.788Z,50.53
2022-08-26T13:21:55.183Z,50.90
2022-08-26T13:24:21.577Z,50.52
2022-08-26T13:26:48.013Z,50.67
2022-08-26T13:29:14.442Z,50.82
2022-08-26T13:31:40.861Z,50.50
2022-08-26T13:34:07.347Z,50.62
2022-08-26T13:36:33.764Z,50.70
2022-08-26T13:39:00.176Z,50.61
2022-08-26T13:41:29.079Z,50.85
2022-08-26T13:43:55.790Z,50.98
2022-08-26T13:46:22.304Z,50.41
2022-08-26T13:48:48.788Z,50.92
2022-08-26T13:51:15.192Z,50.88
2022-08-26T13:53:41.646Z,50.75
2022-08-26T13:56:11.054Z,51.01
2022-08-26T13:58:37.669Z,51.13
2022-08-26T14:01:04.146Z,51.05
2022-08-26T14:03:30.662Z,50.98
2022-08-26T14:05:57.075Z,51.16
2022-08-26T14:08:23.492Z,50.76
2022-08-26T14:10:49.890Z,51.12
2022-08-26T14:13:16.313Z,51.11
2022-08-26T14:15:42.711Z,51.28
2022-08-26T14:18:09.128Z,51.78
2022-08-26T14:20:35.602Z,50.95
2022-08-26T14:23:13.615Z,51.17
2022-08-26T14:25:40.729Z,51.47
2022-08-26T14:28:07.137Z,51.07
2022-08-26T14:30:33.541Z,51.20
2022-08-26T14:32:59.962Z,51.14
2022-08-26T14:35:26.364Z,50.97
2022-08-26T14:37:52.771Z,51.64
2022-08-26T14:40:19.220Z,51.33
2022-08-26T14:42:49.546Z,50.88
2022-08-26T14:45:19.329Z,50.82
2022-08-26T14:47:45.735Z,51.21
2022-08-26T14:50:12.131Z,51.28
2022-08-26T14:52:39.580Z,51.53
2022-08-26T14:55:06.011Z,51.49
2022-08-26T14:57:32.409Z,51.51
2022-08-26T14:59:58.823Z,51.36
2022-08-26T15:02:33.543Z,51.39
2022-08-26T15:05:00.317Z,51.44
2022-08-26T15:07:26.724Z,51.79
2022-08-26T15:09:53.136Z,51.63
2022-08-26T15:12:19.552Z,51.61
2022-08-26T15:14:45.946Z,51.65
2022-08-26T15:17:12.349Z,51.70
2022-08-26T15:19:38.758Z,51.85
2022-08-26T15:22:05.162Z,52.13
2022-08-26T15:24:31.572Z,51.90
2022-08-26T15:26:57.974Z,51.94
2022-08-26T15:29:24.382Z,51.71
2022-08-26T15:31:50.782Z,51.81
2022-08-26T15:34:17.359Z,51.57
2022-08-26T15:36:43.804Z,51.52
2022-08-26T15:39:10.207Z,51.71
2022-08-26T15:41:36.637Z,51.59
2022-08-26T15:44:03.583Z,52.07
2022-08-26T15:46:30.106Z,51.95
2022-08-26T15:48:56.675Z,51.60
2022-08-26T15:51:23.063Z,51.55
2022-08-26T15:53:49.464Z,51.74
2022-08-26T15:56:15.858Z,52.04
2022-08-26T15:58:42.485Z,52.07
2022-08-26T16:01:11.143Z,52.14
2022-08-26T16:03:37.534Z,52.29
2022-08-26T16:06:03.986Z,52.54
2022-08-26T16:08:30.415Z,52.68
2022-08-26T16:11:03.727Z,52.50
2022-08-26T16:13:30.128Z,52.31
2022-08-26T16:16:06.275Z,52.23
2022-08-26T16:18:32.690Z,52.43
2022-08-26T16:21:13.359Z,53.00
2022-08-26T16:23:40.515Z,52.89
2022-08-26T16:26:11.649Z,52.65
2022-08-26T16:28:38.064Z,53.08
2022-08-26T16:31:04.679Z,53.53
2022-08-26T16:33:31.059Z,52.82
2022-08-26T16:35:57.488Z,53.03
2022-08-26T16:38:23.976Z,53.42
2022-08-26T16:40:50.379Z,53.54
2022-08-26T16:43:16.784Z,53.04
2022-08-26T16:45:43.208Z,53.29
2022-08-26T16:48:09.805Z,53.83
2022-08-26T16:50:36.298Z,53.60
2022-08-26T16:53:02.737Z,54.60
2022-08-26T16:55:29.167Z,54.78
2022-08-26T16:57:55.560Z,55.18
2022-08-26T17:00:21.967Z,54.41
2022-08-26T17:02:48.387Z,54.08
2022-08-26T17:05:14.876Z,54.41
2022-08-26T17:07:41.284Z,53.93
2022-08-26T17:10:07.696Z,53.86
2022-08-26T17:12:34.111Z,53.64
2022-08-26T17:15:00.523Z,53.83
2022-08-26T17:17:26.944Z,54.06
2022-08-26T17:19:53.343Z,53.89
2022-08-26T17:22:19.775Z,53.92
2022-08-26T17:24:46.180Z,54.22
2022-08-26T17:27:12.550Z,53.66
2022-08-26T17:29:38.905Z,52.64
2022-08-26T17:32:05.261Z,52.89
2022-08-26T17:34:31.630Z,52.43
2022-08-26T17:36:57.994Z,52.45
2022-08-26T17:39:24.358Z,52.48
2022-08-26T17:41:50.709Z,52.72
2022-08-26T17:44:17.114Z,52.49
2022-08-26T17:46:43.525Z,52.39
2022-08-26T17:49:09.919Z,51.29
2022-08-26T17:51:36.281Z,50.56
2022-08-26T17:54:02.645Z,50.58
2022-08-26T17:56:29.032Z,50.20
2022-08-26T17:58:55.396Z,50.49
2022-08-26T18:01:23.305Z,50.78
2022-08-26T18:03:49.719Z,51.88
2022-08-26T18:06:16.189Z,50.79
2022-08-26T18:08:42.547Z,50.72
2022-08-26T18:11:08.907Z,50.50
2022-08-26T18:13:35.271Z,51.20
2022-08-26T18:16:01.737Z,50.61
2022-08-26T18:18:28.134Z,51.12
2022-08-26T18:21:01.203Z,50.70
2022-08-26T18:23:28.315Z,50.26
2022-08-26T18:25:57.767Z,51.46
2022-08-26T18:28:24.132Z,52.69
2022-08-26T18:30:50.530Z,52.13
2022-08-26T18:33:17.763Z,52.46
2022-08-26T18:35:44.199Z,52.77
2022-08-26T18:38:11.701Z,52.20
2022-08-26T18:40:38.964Z,52.15
2022-08-26T18:43:05.324Z,52.81
2022-08-26T18:45:31.675Z,51.48
2022-08-26T18:47:58.040Z,50.99
2022-08-26T18:50:24.396Z,50.46
2022-08-26T18:52:51.426Z,50.32
2022-08-26T18:55:18.945Z,51.00
2022-08-26T18:57:45.301Z,50.84
2022-08-26T19:00:11.674Z,50.43
2022-08-26T19:02:38.144Z,48.95
2022-08-26T19:05:04.614Z,49.69
2022-08-26T19:07:30.980Z,50.16
2022-08-26T19:09:57.349Z,49.55
2022-08-26T19:12:23.711Z,50.38
2022-08-26T19:14:53.378Z,49.02
2022-08-26T19:17:19.745Z,49.46
2022-08-26T19:19:49.036Z,48.45
2022-08-26T19:22:15.394Z,48.56
2022-08-26T19:24:41.761Z,49.47
2022-08-26T19:27:10.659Z,48.56
2022-08-26T19:29:40.588Z,49.88
2022-08-26T19:32:06.946Z,49.37
2022-08-26T19:34:33.306Z,50.00
2022-08-26T19:36:59.674Z,48.48
2022-08-26T19:39:26.039Z,48.95
2022-08-26T19:41:54.045Z,48.41
2022-08-26T19:44:20.400Z,48.31
2022-08-26T19:46:46.759Z,47.84
2022-08-26T19:49:13.136Z,48.66
2022-08-26T19:51:39.490Z,48.40
2022-08-26T19:54:05.847Z,47.92
2022-08-26T19:56:32.204Z,47.45
2022-08-26T19:58:58.554Z,48.25
2022-08-26T20:01:24.973Z,51.05
2022-08-26T20:03:51.488Z,49.37
2022-08-26T20:06:17.924Z,48.11
2022-08-26T20:08:44.295Z,47.77
2022-08-26T20:11:10.656Z,47.88
2022-08-26T20:13:37.055Z,48.34
2022-08-26T20:16:03.415Z,48.79
2022-08-26T20:18:29.783Z,48.41
2022-08-26T20:20:56.188Z,47.56
2022-08-26T20:23:22.592Z,49.21
2022-08-26T20:25:49.005Z,48.01
2022-08-26T20:28:15.414Z,47.95
2022-08-26T20:30:41.815Z,49.29
2022-08-26T20:33:08.246Z,47.85
2022-08-26T20:35:34.665Z,47.80
2022-08-26T20:38:01.071Z,47.68
2022-08-26T20:40:27.527Z,47.76
2022-08-26T20:42:53.992Z,48.06
2022-08-26T20:45:20.425Z,47.80
2022-08-26T20:47:46.822Z,47.77
2022-08-26T20:50:13.239Z,47.68
2022-08-26T20:52:39.648Z,47.53
2022-08-26T20:55:06.059Z,47.61
2022-08-26T20:57:32.455Z,48.36
2022-08-26T20:59:58.865Z,47.50
2022-08-26T21:02:25.335Z,47.58
2022-08-26T21:04:51.844Z,47.49
2022-08-26T21:07:18.275Z,46.73
2022-08-26T21:09:46.248Z,48.39
2022-08-26T21:12:12.638Z,50.11
2022-08-26T21:14:39.025Z,47.90
2022-08-26T21:17:05.471Z,47.73
2022-08-26T21:19:31.867Z,47.57
2022-08-26T21:21:58.275Z,47.14
2022-08-26T21:24:24.676Z,47.40
2022-08-26T21:26:51.084Z,47.32
2022-08-26T21:29:17.483Z,47.93
2022-08-26T21:31:46.437Z,47.68
2022-08-26T21:34:13.304Z,47.26
2022-08-26T21:36:39.713Z,48.07
2022-08-26T21:39:11.275Z,47.06
2022-08-26T21:41:38.269Z,47.90
2022-08-26T21:44:04.693Z,47.84
2022-08-26T21:46:31.089Z,48.00
2022-08-26T21:48:57.492Z,48.10
2022-08-26T21:51:23.907Z,48.60
2022-08-26T21:53:50.318Z,49.26
2022-08-26T21:56:16.717Z,48.85
2022-08-26T21:58:43.143Z,49.00
2022-08-26T22:01:09.570Z,49.55
2022-08-26T22:03:46.868Z,49.51
2022-08-26T22:06:14.240Z,49.29
2022-08-26T22:08:40.630Z,49.05
2022-08-26T22:11:07.031Z,48.93
2022-08-26T22:13:33.431Z,48.94
2022-08-26T22:15:59.828Z,48.84
2022-08-26T22:18:26.240Z,48.97
2022-08-26T22:20:52.644Z,49.14
2022-08-26T22:23:19.050Z,49.07
2022-08-26T22:25:45.445Z,49.34
2022-08-26T22:28:11.974Z,49.30
2022-08-26T22:30:38.534Z,49.03
2022-08-26T22:33:04.952Z,48.36
2022-08-26T22:35:31.349Z,48.83
2022-08-26T22:37:57.765Z,49.04
2022-08-26T22:40:24.258Z,48.71
2022-08-26T22:42:55.632Z,48.75
2022-08-26T22:45:25.173Z,48.81
2022-08-26T22:47:51.594Z,48.90
2022-08-26T22:50:17.992Z,48.61
2022-08-26T22:52:44.396Z,48.15
2022-08-26T22:55:10.807Z,48.58
2022-08-26T22:57:37.216Z,48.84
2022-08-26T23:00:03.634Z,48.69
2022-08-26T23:02:30.032Z,48.50
2022-08-26T23:04:56.437Z,48.36
2022-08-26T23:07:22.840Z,48.72
2022-08-26T23:09:49.240Z,47.97
2022-08-26T23:12:15.644Z,48.49
2022-08-26T23:14:42.052Z,48.64
2022-08-26T23:17:08.452Z,48.47
2022-08-26T23:19:34.859Z,48.52
2022-08-26T23:22:01.260Z,48.46
2022-08-26T23:24:27.658Z,48.48
2022-08-26T23:26:54.058Z,48.56
2022-08-26T23:29:20.450Z,48.44
2022-08-26T23:31:46.931Z,47.97
2022-08-26T23:34:13.371Z,48.42
2022-08-26T23:36:40.048Z,48.37
2022-08-26T23:39:06.447Z,48.42
2022-08-26T23:41:32.904Z,48.43
2022-08-26T23:44:03.297Z,48.77
2022-08-26T23:46:30.029Z,48.41
2022-08-26T23:48:56.437Z,48.59
2022-08-26T23:51:22.857Z,48.62
2022-08-26T23:53:49.274Z,48.74
2022-08-26T23:56:15.694Z,48.45
2022-08-26T23:58:42.127Z,48.61
